sensor_id;sensor_type;location;lat;lon;timestamp;temperature;humidity
65637;DHT22;52327;42.622;23.316;2022-07-29T00:02:06;18.48;75.10
65637;DHT22;52327;42.622;23.316;2022-07-29T00:04:34;18.52;76.17
65637;DHT22;52327;42.622;23.316;2022-07-29T00:07:00;18.55;75.24
65637;DHT22;52327;42.622;23.316;2022-07-29T00:09:25;18.57;75.05
65637;DHT22;52327;42.622;23.316;2022-07-29T00:11:50;18.52;77.22
65637;DHT22;52327;42.622;23.316;2022-07-29T00:14:16;18.38;75.84
65637;DHT22;52327;42.622;23.316;2022-07-29T00:16:42;18.16;75.67
65637;DHT22;52327;42.622;23.316;2022-07-29T00:19:07;18.09;76.53
65637;DHT22;52327;42.622;23.316;2022-07-29T00:21:32;17.94;76.80
65637;DHT22;52327;42.622;23.316;2022-07-29T00:23:58;17.79;76.92
65637;DHT22;52327;42.622;23.316;2022-07-29T00:26:23;17.92;77.52
65637;DHT22;52327;42.622;23.316;2022-07-29T00:28:48;17.99;78.26
65637;DHT22;52327;42.622;23.316;2022-07-29T00:31:14;18.09;78.15
65637;DHT22;52327;42.622;23.316;2022-07-29T00:33:40;18.08;78.39
65637;DHT22;52327;42.622;23.316;2022-07-29T00:36:05;17.94;78.60
65637;DHT22;52327;42.622;23.316;2022-07-29T00:38:31;17.87;79.25
65637;DHT22;52327;42.622;23.316;2022-07-29T00:40:56;17.75;77.44
65637;DHT22;52327;42.622;23.316;2022-07-29T00:43:22;17.66;77.38
65637;DHT22;52327;42.622;23.316;2022-07-29T00:45:47;17.66;79.16
65637;DHT22;52327;42.622;23.316;2022-07-29T00:48:14;17.75;79.20
65637;DHT22;52327;42.622;23.316;2022-07-29T00:50:39;17.73;80.00
65637;DHT22;52327;42.622;23.316;2022-07-29T00:53:08;17.57;79.36
65637;DHT22;52327;42.622;23.316;2022-07-29T00:55:36;17.28;80.13
65637;DHT22;52327;42.622;23.316;2022-07-29T00:58:02;17.13;81.06
65637;DHT22;52327;42.622;23.316;2022-07-29T01:00:28;17.06;81.53
65637;DHT22;52327;42.622;23.316;2022-07-29T01:02:54;17.09;82.48
65637;DHT22;52327;42.622;23.316;2022-07-29T01:05:21;16.97;82.26
65637;DHT22;52327;42.622;23.316;2022-07-29T01:07:51;16.87;82.78
65637;DHT22;52327;42.622;23.316;2022-07-29T01:10:17;16.77;83.58
65637;DHT22;52327;42.622;23.316;2022-07-29T01:12:44;16.77;83.39
65637;DHT22;52327;42.622;23.316;2022-07-29T01:15:12;16.86;83.15
65637;DHT22;52327;42.622;23.316;2022-07-29T01:28:59;17.23;81.90
65637;DHT22;52327;42.622;23.316;2022-07-29T01:31:42;17.13;81.88
65637;DHT22;52327;42.622;23.316;2022-07-29T01:34:11;17.31;82.25
65637;DHT22;52327;42.622;23.316;2022-07-29T01:36:45;17.33;82.60
65637;DHT22;52327;42.622;23.316;2022-07-29T01:39:16;17.44;82.02
65637;DHT22;52327;42.622;23.316;2022-07-29T01:41:56;17.47;82.46
65637;DHT22;52327;42.622;23.316;2022-07-29T01:47:19;17.37;81.21
65637;DHT22;52327;42.622;23.316;2022-07-29T01:49:48;17.36;81.18
65637;DHT22;52327;42.622;23.316;2022-07-29T01:52:21;17.37;81.12
65637;DHT22;52327;42.622;23.316;2022-07-29T01:54:53;17.48;82.25
65637;DHT22;52327;42.622;23.316;2022-07-29T01:57:21;17.58;80.48
65637;DHT22;52327;42.622;23.316;2022-07-29T01:59:48;17.58;81.16
65637;DHT22;52327;42.622;23.316;2022-07-29T02:02:16;17.57;81.43
65637;DHT22;52327;42.622;23.316;2022-07-29T02:04:45;17.66;80.78
65637;DHT22;52327;42.622;23.316;2022-07-29T02:07:17;17.44;82.14
65637;DHT22;52327;42.622;23.316;2022-07-29T02:09:43;17.24;82.86
65637;DHT22;52327;42.622;23.316;2022-07-29T02:12:10;17.10;83.82
65637;DHT22;52327;42.622;23.316;2022-07-29T02:14:41;17.24;83.59
65637;DHT22;52327;42.622;23.316;2022-07-29T02:17:10;17.34;82.16
65637;DHT22;52327;42.622;23.316;2022-07-29T02:19:37;17.46;82.16
65637;DHT22;52327;42.622;23.316;2022-07-29T02:22:03;17.48;83.13
65637;DHT22;52327;42.622;23.316;2022-07-29T02:24:31;17.36;83.28
65637;DHT22;52327;42.622;23.316;2022-07-29T02:26:58;17.44;82.80
65637;DHT22;52327;42.622;23.316;2022-07-29T02:29:26;17.58;82.59
65637;DHT22;52327;42.622;23.316;2022-07-29T02:31:54;17.70;81.52
65637;DHT22;52327;42.622;23.316;2022-07-29T02:34:23;17.87;80.41
65637;DHT22;52327;42.622;23.316;2022-07-29T02:36:50;18.01;79.68
65637;DHT22;52327;42.622;23.316;2022-07-29T02:39:17;18.21;79.11
65637;DHT22;52327;42.622;23.316;2022-07-29T02:41:57;18.33;78.09
65637;DHT22;52327;42.622;23.316;2022-07-29T02:44:24;18.53;77.25
65637;DHT22;52327;42.622;23.316;2022-07-29T02:47:04;18.63;77.37
65637;DHT22;52327;42.622;23.316;2022-07-29T02:52:16;18.73;78.29
65637;DHT22;52327;42.622;23.316;2022-07-29T02:54:55;18.67;79.01
65637;DHT22;52327;42.622;23.316;2022-07-29T02:57:27;18.48;79.05
65637;DHT22;52327;42.622;23.316;2022-07-29T02:59:57;18.43;78.25
65637;DHT22;52327;42.622;23.316;2022-07-29T03:02:25;18.28;78.60
65637;DHT22;52327;42.622;23.316;2022-07-29T03:04:52;18.18;79.10
65637;DHT22;52327;42.622;23.316;2022-07-29T03:07:19;17.94;79.89
65637;DHT22;52327;42.622;23.316;2022-07-29T03:09:45;17.63;80.60
65637;DHT22;52327;42.622;23.316;2022-07-29T03:12:12;17.36;82.19
65637;DHT22;52327;42.622;23.316;2022-07-29T03:14:38;17.38;82.29
65637;DHT22;52327;42.622;23.316;2022-07-29T03:17:04;17.47;82.28
65637;DHT22;52327;42.622;23.316;2022-07-29T03:19:31;17.53;82.00
65637;DHT22;52327;42.622;23.316;2022-07-29T03:21:57;17.43;82.45
65637;DHT22;52327;42.622;23.316;2022-07-29T03:24:34;17.41;82.29
65637;DHT22;52327;42.622;23.316;2022-07-29T03:27:00;17.31;82.84
65637;DHT22;52327;42.622;23.316;2022-07-29T03:29:27;17.46;82.52
65637;DHT22;52327;42.622;23.316;2022-07-29T03:31:52;17.46;83.61
65637;DHT22;52327;42.622;23.316;2022-07-29T03:34:18;17.51;82.98
65637;DHT22;52327;42.622;23.316;2022-07-29T03:36:43;17.40;82.52
65637;DHT22;52327;42.622;23.316;2022-07-29T03:39:10;17.27;83.28
65637;DHT22;52327;42.622;23.316;2022-07-29T03:41:38;17.07;83.04
65637;DHT22;52327;42.622;23.316;2022-07-29T03:44:05;16.96;83.87
65637;DHT22;52327;42.622;23.316;2022-07-29T03:46:34;17.05;83.85
65637;DHT22;52327;42.622;23.316;2022-07-29T03:49:03;16.90;83.12
65637;DHT22;52327;42.622;23.316;2022-07-29T03:51:29;17.00;83.48
65637;DHT22;52327;42.622;23.316;2022-07-29T03:53:55;16.99;82.81
65637;DHT22;52327;42.622;23.316;2022-07-29T03:56:22;16.96;84.11
65637;DHT22;52327;42.622;23.316;2022-07-29T03:58:50;16.93;82.52
65637;DHT22;52327;42.622;23.316;2022-07-29T04:01:17;16.95;83.18
65637;DHT22;52327;42.622;23.316;2022-07-29T04:03:43;17.12;83.28
65637;DHT22;52327;42.622;23.316;2022-07-29T04:06:11;17.15;82.05
65637;DHT22;52327;42.622;23.316;2022-07-29T04:08:36;17.22;83.02
65637;DHT22;52327;42.622;23.316;2022-07-29T04:11:03;17.27;81.51
65637;DHT22;52327;42.622;23.316;2022-07-29T04:13:29;17.37;81.63
65637;DHT22;52327;42.622;23.316;2022-07-29T04:15:55;17.43;81.98
65637;DHT22;52327;42.622;23.316;2022-07-29T04:18:20;17.51;81.13
65637;DHT22;52327;42.622;23.316;2022-07-29T04:20:46;17.67;81.62
65637;DHT22;52327;42.622;23.316;2022-07-29T04:23:11;17.87;81.60
65637;DHT22;52327;42.622;23.316;2022-07-29T04:25:38;18.16;80.13
65637;DHT22;52327;42.622;23.316;2022-07-29T04:28:04;18.30;80.14
65637;DHT22;52327;42.622;23.316;2022-07-29T04:30:31;18.38;80.48
65637;DHT22;52327;42.622;23.316;2022-07-29T04:32:57;18.50;80.41
65637;DHT22;52327;42.622;23.316;2022-07-29T04:35:22;18.61;79.54
65637;DHT22;52327;42.622;23.316;2022-07-29T04:37:48;18.61;78.93
65637;DHT22;52327;42.622;23.316;2022-07-29T04:40:13;18.70;79.09
65637;DHT22;52327;42.622;23.316;2022-07-29T04:42:39;18.69;78.12
65637;DHT22;52327;42.622;23.316;2022-07-29T04:45:05;18.80;78.63
65637;DHT22;52327;42.622;23.316;2022-07-29T04:47:30;19.08;75.31
65637;DHT22;52327;42.622;23.316;2022-07-29T04:49:56;19.18;76.11
65637;DHT22;52327;42.622;23.316;2022-07-29T04:52:22;19.07;75.23
65637;DHT22;52327;42.622;23.316;2022-07-29T04:54:48;18.96;75.48
65637;DHT22;52327;42.622;23.316;2022-07-29T04:57:13;19.00;75.38
65637;DHT22;52327;42.622;23.316;2022-07-29T04:59:39;19.01;76.34
65637;DHT22;52327;42.622;23.316;2022-07-29T05:02:04;19.04;75.88
65637;DHT22;52327;42.622;23.316;2022-07-29T05:04:30;19.15;76.34
65637;DHT22;52327;42.622;23.316;2022-07-29T05:06:55;19.10;76.33
65637;DHT22;52327;42.622;23.316;2022-07-29T05:09:20;19.18;77.52
65637;DHT22;52327;42.622;23.316;2022-07-29T05:11:46;19.35;76.78
65637;DHT22;52327;42.622;23.316;2022-07-29T05:14:11;19.54;76.42
65637;DHT22;52327;42.622;23.316;2022-07-29T05:16:37;19.49;76.96
65637;DHT22;52327;42.622;23.316;2022-07-29T05:19:04;19.51;76.39
65637;DHT22;52327;42.622;23.316;2022-07-29T05:21:29;19.49;75.47
65637;DHT22;52327;42.622;23.316;2022-07-29T05:23:54;19.63;76.36
65637;DHT22;52327;42.622;23.316;2022-07-29T05:26:20;19.83;76.32
65637;DHT22;52327;42.622;23.316;2022-07-29T05:28:45;19.82;74.76
65637;DHT22;52327;42.622;23.316;2022-07-29T05:31:11;20.02;75.04
65637;DHT22;52327;42.622;23.316;2022-07-29T05:33:36;20.17;74.16
65637;DHT22;52327;42.622;23.316;2022-07-29T05:36:04;20.26;74.05
65637;DHT22;52327;42.622;23.316;2022-07-29T05:38:31;20.36;73.60
65637;DHT22;52327;42.622;23.316;2022-07-29T05:40:58;20.30;73.12
65637;DHT22;52327;42.622;23.316;2022-07-29T05:43:24;20.48;72.43
65637;DHT22;52327;42.622;23.316;2022-07-29T05:45:49;20.41;73.32
65637;DHT22;52327;42.622;23.316;2022-07-29T05:48:15;20.51;74.15
65637;DHT22;52327;42.622;23.316;2022-07-29T05:50:40;20.70;73.37
65637;DHT22;52327;42.622;23.316;2022-07-29T05:53:05;20.81;72.89
65637;DHT22;52327;42.622;23.316;2022-07-29T05:55:47;20.63;73.57
65637;DHT22;52327;42.622;23.316;2022-07-29T05:58:13;20.73;73.40
65637;DHT22;52327;42.622;23.316;2022-07-29T06:00:38;20.87;72.89
65637;DHT22;52327;42.622;23.316;2022-07-29T06:03:03;20.98;72.69
65637;DHT22;52327;42.622;23.316;2022-07-29T06:05:29;21.06;73.41
65637;DHT22;52327;42.622;23.316;2022-07-29T06:07:54;21.14;73.38
65637;DHT22;52327;42.622;23.316;2022-07-29T06:10:21;20.90;73.10
65637;DHT22;52327;42.622;23.316;2022-07-29T06:12:46;20.95;71.71
65637;DHT22;52327;42.622;23.316;2022-07-29T06:15:12;21.05;72.06
65637;DHT22;52327;42.622;23.316;2022-07-29T06:17:37;21.15;72.50
65637;DHT22;52327;42.622;23.316;2022-07-29T06:20:03;21.22;71.98
65637;DHT22;52327;42.622;23.316;2022-07-29T06:22:29;21.33;71.72
65637;DHT22;52327;42.622;23.316;2022-07-29T06:24:55;21.33;71.33
65637;DHT22;52327;42.622;23.316;2022-07-29T06:27:20;21.46;70.00
65637;DHT22;52327;42.622;23.316;2022-07-29T06:29:45;21.72;68.70
65637;DHT22;52327;42.622;23.316;2022-07-29T06:32:11;21.62;69.64
65637;DHT22;52327;42.622;23.316;2022-07-29T06:34:36;21.50;70.24
65637;DHT22;52327;42.622;23.316;2022-07-29T06:37:08;21.67;69.52
65637;DHT22;52327;42.622;23.316;2022-07-29T06:39:37;21.76;68.98
65637;DHT22;52327;42.622;23.316;2022-07-29T06:42:06;21.57;69.14
65637;DHT22;52327;42.622;23.316;2022-07-29T06:44:31;21.41;69.89
65637;DHT22;52327;42.622;23.316;2022-07-29T06:47:04;21.63;69.79
65637;DHT22;52327;42.622;23.316;2022-07-29T06:49:30;21.82;69.42
65637;DHT22;52327;42.622;23.316;2022-07-29T06:51:55;21.87;68.85
65637;DHT22;52327;42.622;23.316;2022-07-29T06:54:21;22.10;68.92
65637;DHT22;52327;42.622;23.316;2022-07-29T06:56:46;22.33;67.86
65637;DHT22;52327;42.622;23.316;2022-07-29T06:59:12;22.48;66.60
65637;DHT22;52327;42.622;23.316;2022-07-29T07:01:41;22.47;66.83
65637;DHT22;52327;42.622;23.316;2022-07-29T07:04:06;22.37;66.68
65637;DHT22;52327;42.622;23.316;2022-07-29T07:06:33;22.25;67.28
65637;DHT22;52327;42.622;23.316;2022-07-29T07:08:59;22.07;68.33
65637;DHT22;52327;42.622;23.316;2022-07-29T07:11:24;22.20;69.34
65637;DHT22;52327;42.622;23.316;2022-07-29T07:13:50;22.37;68.42
65637;DHT22;52327;42.622;23.316;2022-07-29T07:16:15;22.54;68.30
65637;DHT22;52327;42.622;23.316;2022-07-29T07:18:41;22.58;68.35
65637;DHT22;52327;42.622;23.316;2022-07-29T07:21:06;22.79;67.76
65637;DHT22;52327;42.622;23.316;2022-07-29T07:23:31;23.03;66.68
65637;DHT22;52327;42.622;23.316;2022-07-29T07:25:57;23.13;65.82
65637;DHT22;52327;42.622;23.316;2022-07-29T07:28:22;23.22;65.03
65637;DHT22;52327;42.622;23.316;2022-07-29T07:30:48;23.30;64.09
65637;DHT22;52327;42.622;23.316;2022-07-29T07:33:13;23.30;64.78
65637;DHT22;52327;42.622;23.316;2022-07-29T07:35:40;23.39;64.33
65637;DHT22;52327;42.622;23.316;2022-07-29T07:38:05;23.56;64.34
65637;DHT22;52327;42.622;23.316;2022-07-29T07:40:31;23.51;63.44
65637;DHT22;52327;42.622;23.316;2022-07-29T07:42:56;23.33;62.51
65637;DHT22;52327;42.622;23.316;2022-07-29T07:45:22;23.43;63.99
65637;DHT22;52327;42.622;23.316;2022-07-29T07:47:47;23.26;64.04
65637;DHT22;52327;42.622;23.316;2022-07-29T07:50:13;23.49;64.07
65637;DHT22;52327;42.622;23.316;2022-07-29T07:52:51;23.64;62.89
65637;DHT22;52327;42.622;23.316;2022-07-29T07:55:18;23.91;63.03
65637;DHT22;52327;42.622;23.316;2022-07-29T07:57:44;24.02;62.59
65637;DHT22;52327;42.622;23.316;2022-07-29T08:00:12;23.88;60.66
65637;DHT22;52327;42.622;23.316;2022-07-29T08:02:38;23.70;60.68
65637;DHT22;52327;42.622;23.316;2022-07-29T08:05:05;23.84;60.88
65637;DHT22;52327;42.622;23.316;2022-07-29T08:07:31;23.96;62.05
65637;DHT22;52327;42.622;23.316;2022-07-29T08:09:57;24.14;60.00
65637;DHT22;52327;42.622;23.316;2022-07-29T08:12:22;24.26;59.50
65637;DHT22;52327;42.622;23.316;2022-07-29T08:14:48;24.28;58.78
65637;DHT22;52327;42.622;23.316;2022-07-29T08:17:13;24.07;59.96
65637;DHT22;52327;42.622;23.316;2022-07-29T08:19:38;24.29;59.47
65637;DHT22;52327;42.622;23.316;2022-07-29T08:22:05;24.33;59.24
65637;DHT22;52327;42.622;23.316;2022-07-29T08:24:30;24.56;58.96
65637;DHT22;52327;42.622;23.316;2022-07-29T08:27:08;24.70;59.04
65637;DHT22;52327;42.622;23.316;2022-07-29T08:29:34;24.79;58.81
65637;DHT22;52327;42.622;23.316;2022-07-29T08:31:59;25.00;57.25
65637;DHT22;52327;42.622;23.316;2022-07-29T08:34:25;25.09;56.09
65637;DHT22;52327;42.622;23.316;2022-07-29T08:36:50;24.87;56.39
65637;DHT22;52327;42.622;23.316;2022-07-29T08:39:16;25.16;56.71
65637;DHT22;52327;42.622;23.316;2022-07-29T08:41:42;25.45;53.64
65637;DHT22;52327;42.622;23.316;2022-07-29T08:44:08;25.68;53.99
65637;DHT22;52327;42.622;23.316;2022-07-29T08:46:37;25.77;54.26
65637;DHT22;52327;42.622;23.316;2022-07-29T08:49:03;25.89;53.10
65637;DHT22;52327;42.622;23.316;2022-07-29T08:51:29;26.08;54.01
65637;DHT22;52327;42.622;23.316;2022-07-29T08:53:56;26.18;53.48
65637;DHT22;52327;42.622;23.316;2022-07-29T08:56:23;26.22;52.32
65637;DHT22;52327;42.622;23.316;2022-07-29T08:58:48;26.16;52.50
65637;DHT22;52327;42.622;23.316;2022-07-29T09:01:17;26.02;50.54
65637;DHT22;52327;42.622;23.316;2022-07-29T09:03:46;25.96;51.97
65637;DHT22;52327;42.622;23.316;2022-07-29T09:06:15;26.16;52.74
65637;DHT22;52327;42.622;23.316;2022-07-29T09:08:42;26.13;51.97
65637;DHT22;52327;42.622;23.316;2022-07-29T09:11:08;26.21;53.23
65637;DHT22;52327;42.622;23.316;2022-07-29T09:13:34;26.12;52.35
65637;DHT22;52327;42.622;23.316;2022-07-29T09:16:00;26.11;52.27
65637;DHT22;52327;42.622;23.316;2022-07-29T09:18:40;26.09;53.30
65637;DHT22;52327;42.622;23.316;2022-07-29T09:21:12;26.21;52.79
65637;DHT22;52327;42.622;23.316;2022-07-29T09:26:33;26.02;52.75
65637;DHT22;52327;42.622;23.316;2022-07-29T09:28:59;25.88;52.52
65637;DHT22;52327;42.622;23.316;2022-07-29T09:31:35;26.11;52.29
65637;DHT22;52327;42.622;23.316;2022-07-29T09:34:01;26.32;53.01
65637;DHT22;52327;42.622;23.316;2022-07-29T09:36:26;26.64;52.56
65637;DHT22;52327;42.622;23.316;2022-07-29T09:38:59;26.77;51.51
65637;DHT22;52327;42.622;23.316;2022-07-29T09:41:27;26.98;51.20
65637;DHT22;52327;42.622;23.316;2022-07-29T09:43:59;27.05;51.99
65637;DHT22;52327;42.622;23.316;2022-07-29T09:46:25;27.15;49.73
65637;DHT22;52327;42.622;23.316;2022-07-29T09:49:11;27.18;49.41
65637;DHT22;52327;42.622;23.316;2022-07-29T09:51:38;27.38;49.67
65637;DHT22;52327;42.622;23.316;2022-07-29T09:54:25;27.44;49.60
65637;DHT22;52327;42.622;23.316;2022-07-29T09:56:52;27.59;49.40
65637;DHT22;52327;42.622;23.316;2022-07-29T09:59:18;27.58;49.49
65637;DHT22;52327;42.622;23.316;2022-07-29T10:01:48;27.78;48.69
65637;DHT22;52327;42.622;23.316;2022-07-29T10:04:14;27.65;48.77
65637;DHT22;52327;42.622;23.316;2022-07-29T10:07:00;27.61;50.07
65637;DHT22;52327;42.622;23.316;2022-07-29T10:09:26;27.73;48.84
65637;DHT22;52327;42.622;23.316;2022-07-29T10:12:09;27.72;49.51
65637;DHT22;52327;42.622;23.316;2022-07-29T10:14:36;27.79;47.68
65637;DHT22;52327;42.622;23.316;2022-07-29T10:17:04;27.79;48.00
65637;DHT22;52327;42.622;23.316;2022-07-29T10:19:31;27.83;47.84
65637;DHT22;52327;42.622;23.316;2022-07-29T10:21:58;27.49;48.75
65637;DHT22;52327;42.622;23.316;2022-07-29T10:24:28;27.45;50.03
65637;DHT22;52327;42.622;23.316;2022-07-29T10:26:59;27.52;49.09
65637;DHT22;52327;42.622;23.316;2022-07-29T10:29:25;27.35;48.24
65637;DHT22;52327;42.622;23.316;2022-07-29T10:32:33;27.25;48.51
65637;DHT22;52327;42.622;23.316;2022-07-29T10:38:07;27.79;49.67
65637;DHT22;52327;42.622;23.316;2022-07-29T10:43:34;27.81;53.28
65637;DHT22;52327;42.622;23.316;2022-07-29T10:46:02;27.83;53.14
65637;DHT22;52327;42.622;23.316;2022-07-29T10:48:28;28.03;50.30
65637;DHT22;52327;42.622;23.316;2022-07-29T10:53:23;28.13;49.22
65637;DHT22;52327;42.622;23.316;2022-07-29T10:55:50;28.14;48.83
65637;DHT22;52327;42.622;23.316;2022-07-29T10:58:21;28.20;47.21
65637;DHT22;52327;42.622;23.316;2022-07-29T11:00:50;28.48;47.34
65637;DHT22;52327;42.622;23.316;2022-07-29T11:06:06;28.72;46.40
65637;DHT22;52327;42.622;23.316;2022-07-29T11:08:31;29.05;46.32
65637;DHT22;52327;42.622;23.316;2022-07-29T11:13:44;29.46;44.99
65637;DHT22;52327;42.622;23.316;2022-07-29T11:16:15;29.87;44.44
65637;DHT22;52327;42.622;23.316;2022-07-29T11:21:44;30.28;43.16
65637;DHT22;52327;42.622;23.316;2022-07-29T11:24:17;30.25;41.80
65637;DHT22;52327;42.622;23.316;2022-07-29T11:26:43;30.23;40.80
65637;DHT22;52327;42.622;23.316;2022-07-29T11:29:21;30.21;41.90
65637;DHT22;52327;42.622;23.316;2022-07-29T11:31:52;30.10;42.56
65637;DHT22;52327;42.622;23.316;2022-07-29T11:34:28;29.96;44.09
65637;DHT22;52327;42.622;23.316;2022-07-29T11:44:59;30.29;42.28
65637;DHT22;52327;42.622;23.316;2022-07-29T11:47:49;30.51;40.62
65637;DHT22;52327;42.622;23.316;2022-07-29T11:50:18;30.71;39.90
65637;DHT22;52327;42.622;23.316;2022-07-29T11:52:51;30.67;39.68
65637;DHT22;52327;42.622;23.316;2022-07-29T11:55:19;30.74;39.92
65637;DHT22;52327;42.622;23.316;2022-07-29T11:57:56;30.42;39.16
65637;DHT22;52327;42.622;23.316;2022-07-29T12:00:32;30.44;38.86
65637;DHT22;52327;42.622;23.316;2022-07-29T12:03:01;30.14;38.43
65637;DHT22;52327;42.622;23.316;2022-07-29T12:05:37;30.03;39.60
65637;DHT22;52327;42.622;23.316;2022-07-29T12:08:15;30.10;39.67
65637;DHT22;52327;42.622;23.316;2022-07-29T12:10:43;30.06;41.03
65637;DHT22;52327;42.622;23.316;2022-07-29T12:13:09;30.23;42.60
65637;DHT22;52327;42.622;23.316;2022-07-29T12:15:35;30.34;43.69
65637;DHT22;52327;42.622;23.316;2022-07-29T12:18:15;30.42;45.31
65637;DHT22;52327;42.622;23.316;2022-07-29T12:20:42;30.27;46.84
65637;DHT22;52327;42.622;23.316;2022-07-29T12:23:08;34.29;39.70
65637;DHT22;52327;42.622;23.316;2022-07-29T12:25:34;37.37;31.77
65637;DHT22;52327;42.622;23.316;2022-07-29T12:28:07;39.35;27.48
65637;DHT22;52327;42.622;23.316;2022-07-29T12:30:41;41.32;24.28
65637;DHT22;52327;42.622;23.316;2022-07-29T12:33:12;42.45;23.64
65637;DHT22;52327;42.622;23.316;2022-07-29T12:35:38;40.09;24.80
65637;DHT22;52327;42.622;23.316;2022-07-29T12:38:04;40.51;23.96
65637;DHT22;52327;42.622;23.316;2022-07-29T12:40:30;39.03;25.73
65637;DHT22;52327;42.622;23.316;2022-07-29T12:43:13;37.01;27.65
65637;DHT22;52327;42.622;23.316;2022-07-29T12:45:44;35.61;30.75
65637;DHT22;52327;42.622;23.316;2022-07-29T12:48:10;34.19;33.91
65637;DHT22;52327;42.622;23.316;2022-07-29T12:50:55;34.79;33.88
65637;DHT22;52327;42.622;23.316;2022-07-29T12:53:20;34.31;35.09
65637;DHT22;52327;42.622;23.316;2022-07-29T12:55:48;33.27;37.62
65637;DHT22;52327;42.622;23.316;2022-07-29T12:58:38;36.02;33.67
65637;DHT22;52327;42.622;23.316;2022-07-29T13:06:30;40.99;25.24
65637;DHT22;52327;42.622;23.316;2022-07-29T13:09:03;39.68;26.37
65637;DHT22;52327;42.622;23.316;2022-07-29T13:11:34;41.04;24.99
65637;DHT22;52327;42.622;23.316;2022-07-29T13:14:00;42.50;24.23
65637;DHT22;52327;42.622;23.316;2022-07-29T13:16:26;43.56;22.69
65637;DHT22;52327;42.622;23.316;2022-07-29T13:19:05;44.44;21.21
65637;DHT22;52327;42.622;23.316;2022-07-29T13:21:31;45.22;19.71
65637;DHT22;52327;42.622;23.316;2022-07-29T13:23:56;44.94;20.16
65637;DHT22;52327;42.622;23.316;2022-07-29T13:26:22;43.57;20.97
65637;DHT22;52327;42.622;23.316;2022-07-29T13:28:47;44.37;20.74
65637;DHT22;52327;42.622;23.316;2022-07-29T13:31:13;45.20;19.97
65637;DHT22;52327;42.622;23.316;2022-07-29T13:33:41;45.86;19.25
65637;DHT22;52327;42.622;23.316;2022-07-29T13:36:06;46.23;18.95
65637;DHT22;52327;42.622;23.316;2022-07-29T13:38:32;46.47;18.19
65637;DHT22;52327;42.622;23.316;2022-07-29T13:40:58;46.28;18.20
65637;DHT22;52327;42.622;23.316;2022-07-29T13:43:23;46.21;18.17
65637;DHT22;52327;42.622;23.316;2022-07-29T13:45:49;46.89;18.00
65637;DHT22;52327;42.622;23.316;2022-07-29T13:48:14;47.16;17.76
65637;DHT22;52327;42.622;23.316;2022-07-29T13:50:40;47.32;17.66
65637;DHT22;52327;42.622;23.316;2022-07-29T13:53:05;47.66;17.44
65637;DHT22;52327;42.622;23.316;2022-07-29T13:55:30;47.80;17.41
65637;DHT22;52327;42.622;23.316;2022-07-29T13:57:56;48.14;16.43
65637;DHT22;52327;42.622;23.316;2022-07-29T14:00:21;48.18;16.57
65637;DHT22;52327;42.622;23.316;2022-07-29T14:02:48;48.25;16.76
65637;DHT22;52327;42.622;23.316;2022-07-29T14:05:14;48.46;16.60
65637;DHT22;52327;42.622;23.316;2022-07-29T14:07:39;48.43;16.36
65637;DHT22;52327;42.622;23.316;2022-07-29T14:10:05;47.19;16.71
65637;DHT22;52327;42.622;23.316;2022-07-29T14:12:31;43.52;19.34
65637;DHT22;52327;42.622;23.316;2022-07-29T14:14:56;40.47;21.65
65637;DHT22;52327;42.622;23.316;2022-07-29T14:17:22;39.93;22.37
65637;DHT22;52327;42.622;23.316;2022-07-29T14:19:48;38.46;24.68
65637;DHT22;52327;42.622;23.316;2022-07-29T14:22:13;37.66;25.53
65637;DHT22;52327;42.622;23.316;2022-07-29T14:24:39;36.91;25.53
65637;DHT22;52327;42.622;23.316;2022-07-29T14:27:06;36.28;26.87
65637;DHT22;52327;42.622;23.316;2022-07-29T14:29:32;36.28;27.13
65637;DHT22;52327;42.622;23.316;2022-07-29T14:31:57;38.93;24.89
65637;DHT22;52327;42.622;23.316;2022-07-29T14:34:23;41.04;23.18
65637;DHT22;52327;42.622;23.316;2022-07-29T14:36:48;42.51;22.11
65637;DHT22;52327;42.622;23.316;2022-07-29T14:39:14;41.65;23.04
65637;DHT22;52327;42.622;23.316;2022-07-29T14:41:40;40.07;24.56
65637;DHT22;52327;42.622;23.316;2022-07-29T14:44:06;38.84;25.12
65637;DHT22;52327;42.622;23.316;2022-07-29T14:46:31;38.13;26.82
65637;DHT22;52327;42.622;23.316;2022-07-29T14:48:57;37.25;27.49
65637;DHT22;52327;42.622;23.316;2022-07-29T14:51:22;36.42;27.99
65637;DHT22;52327;42.622;23.316;2022-07-29T14:53:48;35.78;29.65
65637;DHT22;52327;42.622;23.316;2022-07-29T14:56:13;35.34;31.21
65637;DHT22;52327;42.622;23.316;2022-07-29T14:58:39;35.13;32.02
65637;DHT22;52327;42.622;23.316;2022-07-29T15:01:04;34.87;32.07
65637;DHT22;52327;42.622;23.316;2022-07-29T15:03:31;34.74;32.59
65637;DHT22;52327;42.622;23.316;2022-07-29T15:05:56;34.99;31.87
65637;DHT22;52327;42.622;23.316;2022-07-29T15:08:21;34.79;31.69
65637;DHT22;52327;42.622;23.316;2022-07-29T15:10:48;34.53;31.45
65637;DHT22;52327;42.622;23.316;2022-07-29T15:13:13;34.36;31.84
65637;DHT22;52327;42.622;23.316;2022-07-29T15:15:39;34.06;31.00
65637;DHT22;52327;42.622;23.316;2022-07-29T15:18:04;33.82;32.24
65637;DHT22;52327;42.622;23.316;2022-07-29T15:20:30;33.61;32.79
65637;DHT22;52327;42.622;23.316;2022-07-29T15:22:56;33.34;32.27
65637;DHT22;52327;42.622;23.316;2022-07-29T15:25:25;33.04;31.93
65637;DHT22;52327;42.622;23.316;2022-07-29T15:27:51;32.87;32.75
65637;DHT22;52327;42.622;23.316;2022-07-29T15:30:16;32.95;32.92
65637;DHT22;52327;42.622;23.316;2022-07-29T15:32:45;32.90;34.17
65637;DHT22;52327;42.622;23.316;2022-07-29T15:35:10;32.69;34.53
65637;DHT22;52327;42.622;23.316;2022-07-29T15:37:37;32.43;35.38
65637;DHT22;52327;42.622;23.316;2022-07-29T15:40:04;32.15;35.99
65637;DHT22;52327;42.622;23.316;2022-07-29T15:42:30;31.92;37.07
65637;DHT22;52327;42.622;23.316;2022-07-29T15:44:55;31.61;38.01
65637;DHT22;52327;42.622;23.316;2022-07-29T15:47:21;31.27;38.83
65637;DHT22;52327;42.622;23.316;2022-07-29T15:49:47;31.02;39.19
65637;DHT22;52327;42.622;23.316;2022-07-29T15:52:14;30.85;38.83
65637;DHT22;52327;42.622;23.316;2022-07-29T15:54:40;30.65;38.92
65637;DHT22;52327;42.622;23.316;2022-07-29T15:57:05;30.49;39.21
65637;DHT22;52327;42.622;23.316;2022-07-29T15:59:31;30.35;39.11
65637;DHT22;52327;42.622;23.316;2022-07-29T16:01:59;30.17;39.80
65637;DHT22;52327;42.622;23.316;2022-07-29T16:04:25;30.00;39.31
65637;DHT22;52327;42.622;23.316;2022-07-29T16:06:50;29.80;39.85
65637;DHT22;52327;42.622;23.316;2022-07-29T16:09:16;29.50;40.01